createdAt,value
2022-08-30T00:00:32.656Z,14.20
2022-08-30T00:03:01.860Z,14.16
2022-08-30T00:05:31.801Z,14.09
2022-08-30T00:07:59.557Z,14.03
2022-08-30T00:10:29.623Z,13.96
2022-08-30T00:12:59.240Z,13.91
2022-08-30T00:15:29.170Z,13.85
2022-08-30T00:17:57.070Z,13.77
2022-08-30T00:20:27.986Z,13.69
2022-08-30T00:22:57.378Z,13.56
2022-08-30T00:25:25.093Z,13.44
2022-08-30T00:27:53.065Z,13.30
2022-08-30T00:30:22.045Z,13.19
2022-08-30T00:32:49.969Z,13.09
2022-08-30T00:35:20.395Z,13.01
2022-08-30T00:37:48.457Z,12.93
2022-08-30T00:40:19.581Z,12.87
2022-08-30T00:42:56.750Z,12.82
2022-08-30T00:45:28.265Z,12.73
2022-08-30T00:47:56.684Z,12.66
2022-08-30T00:50:29.017Z,12.62
2022-08-30T00:53:00.130Z,12.55
2022-08-30T00:55:30.604Z,12.51
2022-08-30T00:58:05.001Z,12.48
2022-08-30T01:00:33.685Z,12.45
2022-08-30T01:03:01.392Z,12.42
2022-08-30T01:05:29.244Z,12.39
2022-08-30T01:07:57.257Z,12.35
2022-08-30T01:10:24.989Z,12.31
2022-08-30T01:12:53.909Z,12.28
2022-08-30T01:15:22.026Z,12.28
2022-08-30T01:17:50.003Z,12.28
2022-08-30T01:20:25.143Z,12.31
2022-08-30T01:23:12.418Z,12.30
2022-08-30T01:25:42.384Z,12.28
2022-08-30T01:28:12.441Z,12.29
2022-08-30T01:30:42.740Z,12.30
2022-08-30T01:33:11.940Z,12.28
2022-08-30T01:35:48.795Z,12.28
2022-08-30T01:38:19.250Z,12.27
2022-08-30T01:40:46.910Z,12.28
2022-08-30T01:43:15.896Z,12.26
2022-08-30T01:45:43.990Z,12.25
2022-08-30T01:48:12.720Z,12.25
2022-08-30T01:50:41.905Z,12.23
2022-08-30T01:53:13.166Z,12.24
2022-08-30T01:55:43.056Z,12.21
2022-08-30T01:58:10.761Z,12.18
2022-08-30T02:00:39.144Z,12.18
2022-08-30T02:03:07.398Z,12.13
2022-08-30T02:05:35.434Z,12.12
2022-08-30T02:08:03.498Z,12.10
2022-08-30T02:10:31.348Z,12.09
2022-08-30T02:13:00.341Z,12.06
2022-08-30T02:15:27.915Z,12.04
2022-08-30T02:17:55.469Z,12.00
2022-08-30T02:20:23.136Z,11.99
2022-08-30T02:22:50.830Z,11.99
2022-08-30T02:25:21.056Z,11.96
2022-08-30T02:27:48.976Z,11.95
2022-08-30T02:30:17.938Z,11.95
2022-08-30T02:32:45.552Z,11.95
2022-08-30T02:35:13.123Z,11.97
2022-08-30T02:37:40.801Z,11.99
2022-08-30T02:40:10.051Z,12.00
2022-08-30T02:42:37.745Z,12.03
2022-08-30T02:45:05.987Z,12.10
2022-08-30T02:47:35.473Z,12.15
2022-08-30T02:50:03.893Z,12.22
2022-08-30T02:52:31.642Z,12.29
2022-08-30T02:54:59.677Z,12.34
2022-08-30T02:57:27.520Z,12.37
2022-08-30T02:59:55.091Z,12.38
2022-08-30T03:02:23.152Z,12.43
2022-08-30T03:04:52.228Z,12.47
2022-08-30T03:07:19.945Z,12.49
2022-08-30T03:09:47.550Z,12.53
2022-08-30T03:12:15.157Z,12.55
2022-08-30T03:14:42.863Z,12.61
2022-08-30T03:17:12.718Z,12.69
2022-08-30T03:19:44.010Z,12.72
2022-08-30T03:22:13.506Z,12.70
2022-08-30T03:24:41.510Z,12.69
2022-08-30T03:27:09.588Z,12.66
2022-08-30T03:29:37.200Z,12.65
2022-08-30T03:32:05.128Z,12.65
2022-08-30T03:34:32.817Z,12.67
2022-08-30T03:37:01.243Z,12.67
2022-08-30T03:39:30.176Z,12.69
2022-08-30T03:41:57.762Z,12.75
2022-08-30T03:44:26.970Z,12.77
2022-08-30T03:46:55.246Z,12.86
2022-08-30T03:49:24.024Z,12.91
2022-08-30T03:51:52.337Z,12.98
2022-08-30T03:54:19.913Z,13.02
2022-08-30T03:56:48.832Z,13.08
2022-08-30T03:59:16.765Z,13.11
2022-08-30T04:01:45.695Z,13.14
2022-08-30T04:04:16.288Z,13.22
2022-08-30T04:06:46.260Z,13.28
2022-08-30T04:09:13.812Z,13.36
2022-08-30T04:11:41.396Z,13.42
2022-08-30T04:14:10.728Z,13.48
2022-08-30T04:16:38.337Z,13.54
2022-08-30T04:19:06.311Z,13.59
2022-08-30T04:21:33.934Z,13.65
2022-08-30T04:24:10.393Z,13.67
2022-08-30T04:26:38.160Z,13.71
2022-08-30T04:29:05.831Z,13.76
2022-08-30T04:31:34.872Z,13.78
2022-08-30T04:34:02.474Z,13.81
2022-08-30T04:36:30.249Z,13.84
2022-08-30T04:38:58.171Z,13.88
2022-08-30T04:41:25.761Z,13.93
2022-08-30T04:43:53.446Z,13.98
2022-08-30T04:46:21.165Z,14.05
2022-08-30T04:48:50.481Z,14.10
2022-08-30T04:51:18.921Z,14.15
2022-08-30T04:53:46.511Z,14.19
2022-08-30T04:56:17.357Z,14.22
2022-08-30T04:58:45.496Z,14.25
2022-08-30T05:01:15.123Z,14.30
2022-08-30T05:03:46.748Z,14.33
2022-08-30T05:06:16.786Z,14.41
2022-08-30T05:08:45.989Z,14.48
2022-08-30T05:11:14.756Z,14.55
2022-08-30T05:13:42.690Z,14.64
2022-08-30T05:16:10.718Z,14.72
2022-08-30T05:18:38.545Z,14.81
2022-08-30T05:21:08.834Z,14.89
2022-08-30T05:23:39.273Z,15.03
2022-08-30T05:26:08.622Z,15.14
2022-08-30T05:28:36.307Z,15.37
2022-08-30T05:31:04.649Z,15.38
2022-08-30T05:33:41.789Z,15.41
2022-08-30T05:36:10.425Z,15.51
2022-08-30T05:38:39.777Z,15.62
2022-08-30T05:41:11.019Z,15.83
2022-08-30T05:43:39.260Z,16.18
2022-08-30T05:46:10.218Z,16.63
2022-08-30T05:48:38.649Z,16.59
2022-08-30T05:51:09.200Z,16.54
2022-08-30T05:53:37.339Z,16.47
2022-08-30T05:56:09.424Z,16.40
2022-08-30T05:58:37.770Z,16.43
2022-08-30T06:01:05.759Z,16.46
2022-08-30T06:03:33.819Z,16.55
2022-08-30T06:06:02.872Z,16.59
2022-08-30T06:08:30.549Z,16.68
2022-08-30T06:10:58.141Z,16.81
2022-08-30T06:13:27.054Z,16.93
2022-08-30T06:15:54.675Z,17.03
2022-08-30T06:18:28.383Z,17.09
2022-08-30T06:20:56.554Z,17.18
2022-08-30T06:23:24.635Z,17.27
2022-08-30T06:25:52.193Z,17.34
2022-08-30T06:28:19.754Z,17.45
2022-08-30T06:30:48.709Z,17.54
2022-08-30T06:33:16.273Z,17.55
2022-08-30T06:35:58.513Z,17.76
2022-08-30T06:38:27.741Z,17.99
2022-08-30T06:40:55.310Z,18.29
2022-08-30T06:43:22.868Z,19.05
2022-08-30T06:45:51.909Z,20.14
2022-08-30T06:48:19.449Z,20.84
2022-08-30T06:50:47.026Z,21.00
2022-08-30T06:53:15.430Z,21.81
2022-08-30T06:55:43.691Z,22.16
2022-08-30T06:58:11.285Z,22.28
2022-08-30T07:00:40.873Z,22.26
2022-08-30T07:03:09.848Z,22.17
2022-08-30T07:05:37.466Z,21.73
2022-08-30T07:08:05.021Z,21.77
2022-08-30T07:10:32.627Z,21.43
2022-08-30T07:13:00.233Z,21.34
2022-08-30T07:15:27.800Z,21.44
2022-08-30T07:18:14.582Z,21.87
2022-08-30T07:20:43.609Z,21.84
2022-08-30T07:23:12.032Z,21.72
2022-08-30T07:25:41.357Z,21.52
2022-08-30T07:28:09.669Z,21.33
2022-08-30T07:30:37.413Z,21.22
2022-08-30T07:33:05.131Z,21.03
2022-08-30T07:35:32.738Z,20.95
2022-08-30T07:38:01.615Z,20.74
2022-08-30T07:40:29.294Z,20.77
2022-08-30T07:42:56.920Z,20.67
2022-08-30T07:45:24.465Z,20.50
2022-08-30T07:47:52.197Z,20.28
2022-08-30T07:50:19.837Z,20.09
2022-08-30T07:52:47.381Z,20.20
2022-08-30T07:55:16.541Z,20.16
2022-08-30T07:57:44.129Z,20.28
2022-08-30T08:00:12.674Z,20.18
2022-08-30T08:02:40.813Z,20.12
2022-08-30T08:05:12.804Z,20.22
2022-08-30T08:07:44.337Z,20.04
2022-08-30T08:10:13.377Z,20.05
2022-08-30T08:12:42.462Z,20.12
2022-08-30T08:15:10.869Z,20.22
2022-08-30T08:17:38.769Z,20.23
2022-08-30T08:20:07.360Z,20.42
2022-08-30T08:22:39.349Z,20.49
2022-08-30T08:25:08.253Z,20.60
2022-08-30T08:27:35.897Z,21.01
2022-08-30T08:30:05.981Z,21.42
2022-08-30T08:32:33.559Z,21.54
2022-08-30T08:35:01.122Z,21.38
2022-08-30T08:37:28.744Z,21.23
2022-08-30T08:39:56.497Z,21.41
2022-08-30T08:42:32.849Z,21.27
2022-08-30T08:45:10.297Z,21.07
2022-08-30T08:47:42.228Z,20.96
2022-08-30T08:50:19.557Z,21.17
2022-08-30T08:53:10.836Z,21.17
2022-08-30T08:55:49.616Z,21.16
2022-08-30T08:58:24.012Z,21.10
2022-08-30T09:00:51.941Z,21.21
2022-08-30T09:03:23.266Z,20.94
2022-08-30T09:05:52.079Z,21.02
2022-08-30T09:08:21.202Z,21.12
2022-08-30T09:10:54.091Z,21.23
2022-08-30T09:13:23.057Z,21.04
2022-08-30T09:18:46.923Z,21.35
2022-08-30T09:21:24.938Z,21.46
2022-08-30T09:24:00.077Z,21.82
2022-08-30T09:26:33.341Z,22.07
2022-08-30T09:29:01.208Z,21.74
2022-08-30T09:31:30.993Z,21.67
2022-08-30T09:34:05.173Z,21.69
2022-08-30T09:36:40.660Z,21.56
2022-08-30T09:39:16.436Z,21.70
2022-08-30T09:41:46.656Z,21.74
2022-08-30T09:44:18.046Z,21.48
2022-08-30T09:46:49.606Z,21.41
2022-08-30T09:49:35.997Z,21.33
2022-08-30T09:52:12.885Z,21.44
2022-08-30T09:54:50.069Z,21.65
2022-08-30T09:57:33.526Z,21.81
2022-08-30T10:00:15.885Z,21.82
2022-08-30T10:02:59.992Z,21.67
2022-08-30T10:05:37.208Z,21.67
2022-08-30T10:08:15.461Z,21.47
2022-08-30T10:10:52.470Z,21.69
2022-08-30T10:13:44.053Z,22.13
2022-08-30T10:16:22.444Z,22.19
2022-08-30T10:19:00.448Z,22.35
2022-08-30T10:21:35.560Z,22.44
2022-08-30T10:24:07.125Z,22.21
2022-08-30T10:26:40.105Z,22.37
2022-08-30T10:29:14.642Z,21.87
2022-08-30T10:31:49.158Z,21.70
2022-08-30T10:34:21.145Z,21.70
2022-08-30T10:36:56.061Z,21.55
2022-08-30T10:39:30.866Z,21.63
2022-08-30T10:42:06.194Z,21.93
2022-08-30T10:44:38.928Z,21.89
2022-08-30T10:47:23.106Z,21.81
2022-08-30T10:49:56.779Z,21.35
2022-08-30T10:52:32.204Z,21.49
2022-08-30T10:55:05.609Z,21.68
2022-08-30T10:57:33.694Z,21.59
2022-08-30T11:00:05.879Z,21.54
2022-08-30T11:02:56.268Z,21.71
2022-08-30T11:05:48.505Z,21.48
2022-08-30T11:08:31.785Z,21.61
2022-08-30T11:11:07.505Z,21.65
2022-08-30T11:13:42.357Z,22.01
2022-08-30T11:16:15.358Z,22.10
2022-08-30T11:18:47.233Z,22.15
2022-08-30T11:21:24.368Z,22.26
2022-08-30T11:27:02.013Z,22.08
2022-08-30T11:29:36.862Z,22.06
2022-08-30T11:32:46.049Z,22.17
2022-08-30T11:35:37.964Z,21.84
2022-08-30T11:38:17.935Z,21.64
2022-08-30T11:40:50.260Z,21.82
2022-08-30T11:43:53.264Z,21.94
2022-08-30T11:46:36.109Z,21.76
2022-08-30T11:49:28.384Z,21.52
2022-08-30T11:52:27.714Z,21.38
2022-08-30T11:55:12.817Z,21.19
2022-08-30T11:57:49.752Z,21.01
2022-08-30T12:00:31.319Z,21.06
2022-08-30T12:03:03.671Z,21.12
2022-08-30T12:05:52.754Z,21.04
2022-08-30T12:08:55.187Z,21.01
2022-08-30T12:11:57.815Z,21.08
2022-08-30T12:14:41.155Z,21.23
2022-08-30T12:17:33.169Z,21.23
2022-08-30T12:20:01.317Z,21.21
2022-08-30T12:22:30.509Z,21.24
2022-08-30T12:24:58.108Z,21.28
2022-08-30T12:27:32.560Z,21.49
2022-08-30T12:30:07.421Z,21.38
2022-08-30T12:32:35.868Z,21.31
2022-08-30T12:35:09.133Z,21.14
2022-08-30T12:37:38.945Z,21.29
2022-08-30T12:40:13.824Z,21.41
2022-08-30T12:42:44.526Z,21.25
2022-08-30T12:45:16.644Z,21.11
2022-08-30T12:47:48.941Z,21.07
2022-08-30T12:50:20.601Z,21.17
2022-08-30T12:52:56.505Z,21.21
2022-08-30T12:55:26.732Z,21.32
2022-08-30T12:58:01.389Z,21.16
2022-08-30T13:00:32.314Z,21.21
2022-08-30T13:03:02.886Z,21.36
2022-08-30T13:05:48.468Z,21.28
2022-08-30T13:08:22.501Z,21.25
2022-08-30T13:11:01.528Z,21.01
2022-08-30T13:13:38.723Z,21.02
2022-08-30T13:16:26.402Z,21.02
2022-08-30T13:19:16.969Z,20.94
2022-08-30T13:21:51.739Z,20.87
2022-08-30T13:24:22.387Z,20.94
2022-08-30T13:26:54.925Z,21.02
2022-08-30T13:29:27.952Z,21.13
2022-08-30T13:31:57.579Z,21.19
2022-08-30T13:34:25.497Z,21.11
2022-08-30T13:36:56.084Z,21.03
2022-08-30T13:39:23.899Z,21.09
2022-08-30T13:41:52.082Z,20.96
2022-08-30T13:44:19.661Z,20.83
2022-08-30T13:46:53.857Z,21.05
2022-08-30T13:52:21.538Z,20.97
2022-08-30T13:54:50.301Z,21.04
2022-08-30T14:00:12.691Z,21.26
2022-08-30T14:02:45.457Z,21.22
2022-08-30T14:05:46.861Z,21.18
2022-08-30T14:08:05.047Z,21.23
2022-08-30T14:10:39.360Z,21.03
2022-08-30T14:13:14.495Z,21.04
2022-08-30T14:15:42.289Z,20.91
2022-08-30T14:18:12.561Z,20.84
2022-08-30T14:20:44.851Z,20.84
2022-08-30T14:23:12.620Z,20.83
2022-08-30T14:25:41.028Z,20.80
2022-08-30T14:28:09.522Z,20.76
2022-08-30T14:30:38.963Z,20.77
2022-08-30T14:33:07.188Z,20.72
2022-08-30T14:35:36.568Z,20.84
2022-08-30T14:38:05.808Z,20.81
2022-08-30T14:40:33.914Z,20.69
2022-08-30T14:43:02.433Z,20.88
2022-08-30T14:45:30.030Z,20.86
2022-08-30T14:47:57.749Z,21.03
2022-08-30T14:50:27.966Z,20.98
2022-08-30T14:52:55.648Z,20.92
2022-08-30T14:55:28.509Z,20.81
2022-08-30T14:57:57.545Z,20.81
2022-08-30T15:00:25.948Z,20.82
2022-08-30T15:02:53.694Z,20.87
2022-08-30T15:05:21.356Z,20.90
2022-08-30T15:07:51.449Z,20.89
2022-08-30T15:10:20.761Z,20.76
2022-08-30T15:12:50.834Z,20.78
2022-08-30T15:15:22.913Z,20.85
2022-08-30T15:17:51.084Z,20.85
2022-08-30T15:20:19.984Z,20.87
2022-08-30T15:22:47.899Z,20.87
2022-08-30T15:25:15.884Z,20.79
2022-08-30T15:27:44.618Z,20.74
2022-08-30T15:30:15.289Z,20.53
2022-08-30T15:32:42.925Z,20.69
2022-08-30T15:35:11.286Z,20.71
2022-08-30T15:37:38.966Z,20.80
2022-08-30T15:40:08.546Z,20.78
2022-08-30T15:42:36.200Z,20.72
2022-08-30T15:45:03.908Z,20.67
2022-08-30T15:47:32.896Z,20.63
2022-08-30T15:50:03.006Z,20.62
2022-08-30T15:52:32.389Z,20.69
2022-08-30T15:55:00.532Z,20.64
2022-08-30T15:57:28.175Z,20.68
2022-08-30T15:59:55.984Z,20.77
2022-08-30T16:02:27.585Z,20.58
2022-08-30T16:04:56.888Z,20.59
2022-08-30T16:07:24.461Z,20.47
2022-08-30T16:09:53.288Z,20.42
2022-08-30T16:12:23.907Z,20.37
2022-08-30T16:14:51.640Z,20.36
2022-08-30T16:17:19.288Z,20.36
2022-08-30T16:19:46.828Z,20.39
2022-08-30T16:22:22.098Z,20.50
2022-08-30T16:24:50.135Z,20.50
2022-08-30T16:27:17.813Z,20.39
2022-08-30T16:29:45.377Z,20.30
2022-08-30T16:32:12.975Z,20.24
2022-08-30T16:34:40.780Z,20.08
2022-08-30T16:37:08.396Z,20.09
2022-08-30T16:39:37.386Z,20.11
2022-08-30T16:42:07.648Z,20.17
2022-08-30T16:44:35.785Z,20.04
2022-08-30T16:47:03.657Z,19.96
2022-08-30T16:49:31.289Z,19.90
2022-08-30T16:51:58.846Z,19.86
2022-08-30T16:54:26.517Z,19.74
2022-08-30T16:56:55.720Z,19.71
2022-08-30T16:59:23.618Z,19.64
2022-08-30T17:01:51.691Z,19.60
2022-08-30T17:04:20.251Z,19.55
2022-08-30T17:06:49.774Z,19.52
2022-08-30T17:09:18.200Z,19.46
2022-08-30T17:11:45.757Z,19.42
2022-08-30T17:14:14.870Z,19.32
2022-08-30T17:16:42.602Z,19.35
2022-08-30T17:19:13.201Z,19.26
2022-08-30T17:21:40.788Z,19.21
2022-08-30T17:24:08.816Z,19.20
2022-08-30T17:26:38.044Z,19.17
2022-08-30T17:29:06.275Z,19.12
2022-08-30T17:31:37.465Z,19.09
2022-08-30T17:34:05.875Z,19.05
2022-08-30T17:36:36.416Z,18.98
2022-08-30T17:39:11.015Z,18.93
2022-08-30T17:41:39.948Z,18.88
2022-08-30T17:44:13.400Z,18.79
2022-08-30T17:46:42.482Z,18.76
2022-08-30T17:49:10.630Z,18.68
2022-08-30T17:51:42.613Z,18.62
2022-08-30T17:54:10.402Z,18.52
2022-08-30T17:56:37.977Z,18.44
2022-08-30T17:59:07.905Z,18.36
2022-08-30T18:01:36.769Z,18.24
2022-08-30T18:04:06.614Z,18.15
2022-08-30T18:06:34.509Z,18.03
2022-08-30T18:09:02.620Z,17.92
2022-08-30T18:11:30.232Z,17.81
2022-08-30T18:13:58.069Z,17.70
2022-08-30T18:16:26.419Z,17.57
2022-08-30T18:18:55.881Z,17.45
2022-08-30T18:21:28.519Z,17.32
2022-08-30T18:23:56.586Z,17.17
2022-08-30T18:26:24.534Z,17.06
2022-08-30T18:28:52.961Z,16.94
2022-08-30T18:31:21.005Z,16.83
2022-08-30T18:33:48.639Z,16.74
2022-08-30T18:36:16.611Z,16.63
2022-08-30T18:38:46.658Z,16.52
2022-08-30T18:41:15.813Z,16.42
2022-08-30T18:43:44.895Z,16.32
2022-08-30T18:46:14.537Z,16.24
2022-08-30T18:48:43.489Z,16.13
2022-08-30T18:51:12.205Z,16.05
2022-08-30T18:53:39.938Z,15.95
2022-08-30T18:56:10.478Z,15.87
2022-08-30T18:58:40.191Z,15.78
2022-08-30T19:01:12.810Z,15.67
2022-08-30T19:03:41.858Z,15.56
2022-08-30T19:06:12.354Z,15.48
2022-08-30T19:08:41.574Z,15.40
2022-08-30T19:11:14.745Z,15.30
2022-08-30T19:13:42.305Z,15.22
2022-08-30T19:16:12.013Z,15.13
2022-08-30T19:18:39.909Z,15.07
2022-08-30T19:21:13.552Z,15.00
2022-08-30T19:23:41.940Z,14.94
2022-08-30T19:26:10.779Z,14.90
2022-08-30T19:28:40.523Z,14.82
2022-08-30T19:31:08.709Z,14.79
2022-08-30T19:33:36.601Z,14.78
2022-08-30T19:36:06.531Z,14.75
2022-08-30T19:38:35.548Z,14.72
2022-08-30T19:41:03.741Z,14.70
2022-08-30T19:43:31.465Z,14.69
2022-08-30T19:46:01.073Z,14.64
2022-08-30T19:48:32.671Z,14.62
2022-08-30T19:51:01.426Z,14.59
2022-08-30T19:53:29.130Z,14.57
2022-08-30T19:55:56.774Z,14.57
2022-08-30T19:58:24.386Z,14.52
2022-08-30T20:01:00.719Z,14.48
2022-08-30T20:03:41.204Z,14.43
2022-08-30T20:06:09.051Z,14.37
2022-08-30T20:08:37.117Z,14.29
2022-08-30T20:11:04.818Z,14.21
2022-08-30T20:13:34.319Z,14.13
2022-08-30T20:16:02.327Z,14.04
2022-08-30T20:18:30.182Z,13.99
2022-08-30T20:20:59.157Z,14.03
2022-08-30T20:23:26.957Z,14.09
2022-08-30T20:25:55.598Z,14.15
2022-08-30T20:28:24.535Z,14.23
2022-08-30T20:30:53.185Z,14.32
2022-08-30T20:33:21.652Z,14.39
2022-08-30T20:35:49.914Z,14.49
2022-08-30T20:38:21.946Z,14.57
2022-08-30T20:40:51.562Z,14.60
2022-08-30T20:43:20.244Z,14.65
2022-08-30T20:45:48.323Z,14.71
2022-08-30T20:48:16.286Z,14.76
2022-08-30T20:50:44.729Z,14.81
2022-08-30T20:53:12.825Z,14.83
2022-08-30T20:55:43.346Z,14.87
2022-08-30T20:58:11.396Z,14.88
2022-08-30T21:00:39.052Z,14.88
2022-08-30T21:03:11.409Z,14.90
2022-08-30T21:05:54.174Z,14.90
2022-08-30T21:08:21.785Z,14.92
2022-08-30T21:10:50.797Z,14.93
2022-08-30T21:13:18.546Z,14.92
2022-08-30T21:15:46.403Z,14.92
2022-08-30T21:18:14.614Z,14.94
2022-08-30T21:20:42.606Z,14.87
2022-08-30T21:23:10.552Z,14.87
2022-08-30T21:25:39.396Z,14.87
2022-08-30T21:28:08.710Z,14.87
2022-08-30T21:30:37.232Z,14.83
2022-08-30T21:33:05.496Z,14.82
2022-08-30T21:35:50.908Z,14.81
2022-08-30T21:38:19.367Z,14.80
2022-08-30T21:40:48.350Z,14.81
2022-08-30T21:43:17.420Z,14.80
2022-08-30T21:45:46.404Z,14.79
2022-08-30T21:48:14.969Z,14.78
2022-08-30T21:50:43.787Z,14.79
2022-08-30T21:53:15.409Z,14.79
2022-08-30T21:55:44.789Z,14.75
2022-08-30T21:58:12.357Z,14.74
2022-08-30T22:00:41.245Z,14.75
2022-08-30T22:03:08.975Z,14.72
2022-08-30T22:05:36.593Z,14.72
2022-08-30T22:08:04.530Z,14.72
2022-08-30T22:10:33.398Z,14.71
2022-08-30T22:13:01.169Z,14.66
2022-08-30T22:15:28.980Z,14.63
2022-08-30T22:17:58.462Z,14.62
2022-08-30T22:20:26.025Z,14.61
2022-08-30T22:22:58.024Z,14.60
2022-08-30T22:25:26.489Z,14.57
2022-08-30T22:27:54.043Z,14.54
2022-08-30T22:30:21.825Z,14.49
2022-08-30T22:32:49.809Z,14.45
2022-08-30T22:35:20.398Z,14.41
2022-08-30T22:37:52.996Z,14.33
2022-08-30T22:40:22.022Z,14.29
2022-08-30T22:42:49.616Z,14.26
2022-08-30T22:45:17.511Z,14.19
2022-08-30T22:47:45.091Z,14.16
2022-08-30T22:50:13.124Z,14.11
2022-08-30T22:52:42.054Z,14.06
2022-08-30T22:55:09.832Z,13.95
2022-08-30T22:57:37.964Z,13.88
2022-08-30T23:00:07.554Z,13.79
2022-08-30T23:02:35.989Z,13.69
2022-08-30T23:05:04.392Z,13.62
2022-08-30T23:07:32.234Z,13.56
2022-08-30T23:10:01.401Z,13.49
2022-08-30T23:12:29.066Z,13.45
2022-08-30T23:14:56.632Z,13.44
2022-08-30T23:17:24.237Z,13.44
2022-08-30T23:19:51.769Z,13.49
2022-08-30T23:22:19.336Z,13.57
2022-08-30T23:25:05.328Z,13.67
2022-08-30T23:27:59.470Z,13.73
2022-08-30T23:30:44.885Z,13.75
2022-08-30T23:33:30.116Z,13.75
2022-08-30T23:36:15.067Z,13.74
2022-08-30T23:39:00.529Z,13.77
2022-08-30T23:41:45.769Z,13.80
2022-08-30T23:44:32.267Z,13.79
2022-08-30T23:47:17.666Z,13.81
2022-08-30T23:50:02.880Z,13.83
2022-08-30T23:52:48.159Z,13.83
2022-08-30T23:55:33.017Z,13.82
2022-08-30T23:58:18.488Z,13.82
